sensor_id;sensor_type;location;lat;lon;timestamp;temperature;humidity
76345;DHT22;65160;50.504;3.666;2023-02-28T00:00:19;0.11;77.31
76345;DHT22;65160;50.504;3.666;2023-02-28T00:02:45;0.13;77.21
76345;DHT22;65160;50.504;3.666;2023-02-28T00:05:13;0.13;77.35
76345;DHT22;65160;50.504;3.666;2023-02-28T00:07:39;0.07;77.31
76345;DHT22;65160;50.504;3.666;2023-02-28T00:10:06;0.08;77.37
76345;DHT22;65160;50.504;3.666;2023-02-28T00:12:33;0.10;77.30
76345;DHT22;65160;50.504;3.666;2023-02-28T00:14:58;0.08;77.21
76345;DHT22;65160;50.504;3.666;2023-02-28T00:17:24;0.04;77.16
76345;DHT22;65160;50.504;3.666;2023-02-28T00:19:50;0.00;77.31
76345;DHT22;65160;50.504;3.666;2023-02-28T00:22:20;0.10;77.46
76345;DHT22;65160;50.504;3.666;2023-02-28T00:24:46;0.08;77.34
76345;DHT22;65160;50.504;3.666;2023-02-28T00:27:13;0.03;77.39
76345;DHT22;65160;50.504;3.666;2023-02-28T00:29:38;0.03;77.21
76345;DHT22;65160;50.504;3.666;2023-02-28T00:32:04;-0.02;77.32
76345;DHT22;65160;50.504;3.666;2023-02-28T00:34:30;-0.04;77.36
76345;DHT22;65160;50.504;3.666;2023-02-28T00:36:56;-0.09;77.19
76345;DHT22;65160;50.504;3.666;2023-02-28T00:39:22;-0.11;77.08
76345;DHT22;65160;50.504;3.666;2023-02-28T00:41:47;-0.13;77.12
76345;DHT22;65160;50.504;3.666;2023-02-28T00:44:13;-0.11;77.16
76345;DHT22;65160;50.504;3.666;2023-02-28T00:46:38;-0.10;77.13
76345;DHT22;65160;50.504;3.666;2023-02-28T00:49:04;-0.09;77.23
76345;DHT22;65160;50.504;3.666;2023-02-28T00:51:29;-0.11;77.29
76345;DHT22;65160;50.504;3.666;2023-02-28T00:53:55;-0.15;77.43
76345;DHT22;65160;50.504;3.666;2023-02-28T00:56:20;-0.13;77.48
76345;DHT22;65160;50.504;3.666;2023-02-28T00:58:46;-0.15;77.69
76345;DHT22;65160;50.504;3.666;2023-02-28T01:01:12;-0.13;77.59
76345;DHT22;65160;50.504;3.666;2023-02-28T01:03:37;-0.15;77.52
76345;DHT22;65160;50.504;3.666;2023-02-28T01:06:04;-0.17;77.46
76345;DHT22;65160;50.504;3.666;2023-02-28T01:08:29;-0.13;77.42
76345;DHT22;65160;50.504;3.666;2023-02-28T01:10:55;-0.10;77.75
76345;DHT22;65160;50.504;3.666;2023-02-28T01:13:21;-0.14;78.01
76345;DHT22;65160;50.504;3.666;2023-02-28T01:15:53;-0.11;77.72
76345;DHT22;65160;50.504;3.666;2023-02-28T01:18:20;-0.09;77.52
76345;DHT22;65160;50.504;3.666;2023-02-28T01:20:46;-0.13;77.81
76345;DHT22;65160;50.504;3.666;2023-02-28T01:23:11;-0.18;77.69
76345;DHT22;65160;50.504;3.666;2023-02-28T01:25:37;-0.23;77.71
76345;DHT22;65160;50.504;3.666;2023-02-28T01:28:03;-0.20;77.60
76345;DHT22;65160;50.504;3.666;2023-02-28T01:30:28;-0.20;77.87
76345;DHT22;65160;50.504;3.666;2023-02-28T01:32:54;-0.25;77.53
76345;DHT22;65160;50.504;3.666;2023-02-28T01:35:20;-0.23;77.84
76345;DHT22;65160;50.504;3.666;2023-02-28T01:37:45;-0.31;77.87
76345;DHT22;65160;50.504;3.666;2023-02-28T01:40:12;-0.35;78.00
76345;DHT22;65160;50.504;3.666;2023-02-28T01:42:38;-0.40;78.00
76345;DHT22;65160;50.504;3.666;2023-02-28T01:45:14;-0.45;78.12
76345;DHT22;65160;50.504;3.666;2023-02-28T01:47:42;-0.54;78.27
76345;DHT22;65160;50.504;3.666;2023-02-28T01:50:15;-0.55;78.45
76345;DHT22;65160;50.504;3.666;2023-02-28T01:52:42;-0.59;78.65
76345;DHT22;65160;50.504;3.666;2023-02-28T01:55:10;-0.61;78.62
76345;DHT22;65160;50.504;3.666;2023-02-28T01:57:45;-0.55;78.68
76345;DHT22;65160;50.504;3.666;2023-02-28T02:00:17;-0.58;78.63
76345;DHT22;65160;50.504;3.666;2023-02-28T02:02:47;-0.59;78.46
76345;DHT22;65160;50.504;3.666;2023-02-28T02:05:25;-0.57;78.52
76345;DHT22;65160;50.504;3.666;2023-02-28T02:07:54;-0.57;78.44
76345;DHT22;65160;50.504;3.666;2023-02-28T02:10:29;-0.54;78.66
76345;DHT22;65160;50.504;3.666;2023-02-28T02:19:14;-0.62;78.76
76345;DHT22;65160;50.504;3.666;2023-02-28T02:29:45;-0.69;78.90
76345;DHT22;65160;50.504;3.666;2023-02-28T02:35:32;-0.75;79.17
76345;DHT22;65160;50.504;3.666;2023-02-28T02:43:25;-0.64;78.98
76345;DHT22;65160;50.504;3.666;2023-02-28T02:45:57;-0.68;79.06
76345;DHT22;65160;50.504;3.666;2023-02-28T02:48:28;-0.68;79.05
76345;DHT22;65160;50.504;3.666;2023-02-28T02:51:01;-0.69;79.02
76345;DHT22;65160;50.504;3.666;2023-02-28T02:53:35;-0.69;79.07
76345;DHT22;65160;50.504;3.666;2023-02-28T02:56:03;-0.70;79.22
76345;DHT22;65160;50.504;3.666;2023-02-28T02:58:35;-0.72;79.41
76345;DHT22;65160;50.504;3.666;2023-02-28T03:01:08;-0.72;79.39
76345;DHT22;65160;50.504;3.666;2023-02-28T03:03:35;-0.69;79.29
76345;DHT22;65160;50.504;3.666;2023-02-28T03:06:01;-0.73;79.21
76345;DHT22;65160;50.504;3.666;2023-02-28T03:08:29;-0.80;79.34
76345;DHT22;65160;50.504;3.666;2023-02-28T03:11:01;-0.82;79.27
76345;DHT22;65160;50.504;3.666;2023-02-28T03:14:05;-0.86;79.30
76345;DHT22;65160;50.504;3.666;2023-02-28T03:21:46;-1.13;80.00
76345;DHT22;65160;50.504;3.666;2023-02-28T03:24:49;-1.11;80.05
76345;DHT22;65160;50.504;3.666;2023-02-28T03:32:58;-1.23;80.34
76345;DHT22;65160;50.504;3.666;2023-02-28T03:35:37;-1.18;80.24
76345;DHT22;65160;50.504;3.666;2023-02-28T03:38:19;-1.18;80.42
76345;DHT22;65160;50.504;3.666;2023-02-28T03:40:53;-1.20;80.36
76345;DHT22;65160;50.504;3.666;2023-02-28T03:43:24;-1.21;80.60
76345;DHT22;65160;50.504;3.666;2023-02-28T03:45:54;-1.20;80.44
76345;DHT22;65160;50.504;3.666;2023-02-28T03:51:03;-1.21;80.56
76345;DHT22;65160;50.504;3.666;2023-02-28T03:53:35;-1.17;80.61
76345;DHT22;65160;50.504;3.666;2023-02-28T03:56:09;-1.17;80.69
76345;DHT22;65160;50.504;3.666;2023-02-28T04:01:38;-1.17;80.43
76345;DHT22;65160;50.504;3.666;2023-02-28T04:04:04;-1.17;80.56
76345;DHT22;65160;50.504;3.666;2023-02-28T04:06:32;-1.18;80.58
76345;DHT22;65160;50.504;3.666;2023-02-28T04:08:58;-1.21;80.45
76345;DHT22;65160;50.504;3.666;2023-02-28T04:11:42;-1.13;80.32
76345;DHT22;65160;50.504;3.666;2023-02-28T04:14:10;-1.11;80.08
76345;DHT22;65160;50.504;3.666;2023-02-28T04:16:38;-1.13;80.02
76345;DHT22;65160;50.504;3.666;2023-02-28T04:19:05;-1.14;80.11
76345;DHT22;65160;50.504;3.666;2023-02-28T04:21:56;-1.13;80.25
76345;DHT22;65160;50.504;3.666;2023-02-28T04:24:23;-1.10;80.15
76345;DHT22;65160;50.504;3.666;2023-02-28T04:26:54;-1.04;79.96
76345;DHT22;65160;50.504;3.666;2023-02-28T04:29:27;-1.07;80.09
76345;DHT22;65160;50.504;3.666;2023-02-28T04:31:53;-1.08;79.97
76345;DHT22;65160;50.504;3.666;2023-02-28T04:34:20;-1.06;79.97
76345;DHT22;65160;50.504;3.666;2023-02-28T04:36:47;-1.08;79.96
76345;DHT22;65160;50.504;3.666;2023-02-28T04:39:15;-1.14;80.30
76345;DHT22;65160;50.504;3.666;2023-02-28T04:41:42;-1.13;80.05
76345;DHT22;65160;50.504;3.666;2023-02-28T04:44:07;-1.17;80.18
76345;DHT22;65160;50.504;3.666;2023-02-28T04:46:33;-1.14;80.10
76345;DHT22;65160;50.504;3.666;2023-02-28T04:48:58;-1.08;80.07
76345;DHT22;65160;50.504;3.666;2023-02-28T04:51:24;-1.14;80.24
76345;DHT22;65160;50.504;3.666;2023-02-28T04:53:49;-1.14;80.23
76345;DHT22;65160;50.504;3.666;2023-02-28T04:56:17;-1.16;80.29
76345;DHT22;65160;50.504;3.666;2023-02-28T04:58:43;-1.16;80.27
76345;DHT22;65160;50.504;3.666;2023-02-28T05:03:54;-1.18;80.18
76345;DHT22;65160;50.504;3.666;2023-02-28T05:06:20;-1.20;80.51
76345;DHT22;65160;50.504;3.666;2023-02-28T05:08:46;-1.28;80.56
76345;DHT22;65160;50.504;3.666;2023-02-28T05:11:24;-1.33;80.62
76345;DHT22;65160;50.504;3.666;2023-02-28T05:13:50;-1.37;80.73
76345;DHT22;65160;50.504;3.666;2023-02-28T05:16:16;-1.37;80.83
76345;DHT22;65160;50.504;3.666;2023-02-28T05:18:43;-1.41;80.76
76345;DHT22;65160;50.504;3.666;2023-02-28T05:23:55;-1.54;80.96
76345;DHT22;65160;50.504;3.666;2023-02-28T05:26:21;-1.55;81.07
76345;DHT22;65160;50.504;3.666;2023-02-28T05:28:47;-1.59;81.31
76345;DHT22;65160;50.504;3.666;2023-02-28T05:31:13;-1.62;81.24
76345;DHT22;65160;50.504;3.666;2023-02-28T05:33:38;-1.61;81.25
76345;DHT22;65160;50.504;3.666;2023-02-28T05:36:05;-1.64;81.32
76345;DHT22;65160;50.504;3.666;2023-02-28T05:38:31;-1.64;81.47
76345;DHT22;65160;50.504;3.666;2023-02-28T05:40:56;-1.66;81.35
76345;DHT22;65160;50.504;3.666;2023-02-28T05:43:22;-1.66;81.59
76345;DHT22;65160;50.504;3.666;2023-02-28T05:45:48;-1.69;81.64
76345;DHT22;65160;50.504;3.666;2023-02-28T05:48:14;-1.72;81.80
76345;DHT22;65160;50.504;3.666;2023-02-28T05:50:39;-1.79;82.11
76345;DHT22;65160;50.504;3.666;2023-02-28T05:53:05;-1.81;82.60
76345;DHT22;65160;50.504;3.666;2023-02-28T05:55:30;-1.81;82.48
76345;DHT22;65160;50.504;3.666;2023-02-28T05:57:56;-1.81;82.57
76345;DHT22;65160;50.504;3.666;2023-02-28T06:00:21;-1.81;82.84
76345;DHT22;65160;50.504;3.666;2023-02-28T06:02:47;-1.83;82.95
76345;DHT22;65160;50.504;3.666;2023-02-28T06:05:14;-1.89;82.98
76345;DHT22;65160;50.504;3.666;2023-02-28T06:07:40;-1.86;83.02
76345;DHT22;65160;50.504;3.666;2023-02-28T06:10:06;-1.83;83.02
76345;DHT22;65160;50.504;3.666;2023-02-28T06:12:32;-1.81;83.17
76345;DHT22;65160;50.504;3.666;2023-02-28T06:14:57;-1.78;82.99
76345;DHT22;65160;50.504;3.666;2023-02-28T06:17:23;-1.76;83.05
76345;DHT22;65160;50.504;3.666;2023-02-28T06:19:48;-1.76;82.87
76345;DHT22;65160;50.504;3.666;2023-02-28T06:22:14;-1.72;82.99
76345;DHT22;65160;50.504;3.666;2023-02-28T06:24:39;-1.66;82.98
76345;DHT22;65160;50.504;3.666;2023-02-28T06:27:05;-1.61;83.00
76345;DHT22;65160;50.504;3.666;2023-02-28T06:29:32;-1.56;82.90
76345;DHT22;65160;50.504;3.666;2023-02-28T06:31:57;-1.56;82.89
76345;DHT22;65160;50.504;3.666;2023-02-28T06:34:23;-1.56;83.00
76345;DHT22;65160;50.504;3.666;2023-02-28T06:36:50;-1.52;83.07
76345;DHT22;65160;50.504;3.666;2023-02-28T06:39:16;-1.48;83.17
76345;DHT22;65160;50.504;3.666;2023-02-28T06:41:42;-1.40;82.93
76345;DHT22;65160;50.504;3.666;2023-02-28T06:44:19;-1.34;82.83
76345;DHT22;65160;50.504;3.666;2023-02-28T06:46:45;-1.23;82.45
76345;DHT22;65160;50.504;3.666;2023-02-28T06:49:11;-1.16;82.13
76345;DHT22;65160;50.504;3.666;2023-02-28T06:51:39;-1.03;81.67
76345;DHT22;65160;50.504;3.666;2023-02-28T06:54:05;-0.97;81.36
76345;DHT22;65160;50.504;3.666;2023-02-28T06:56:34;-0.92;81.28
76345;DHT22;65160;50.504;3.666;2023-02-28T06:59:00;-0.90;81.12
76345;DHT22;65160;50.504;3.666;2023-02-28T07:01:26;-0.78;80.95
76345;DHT22;65160;50.504;3.666;2023-02-28T07:03:53;-0.68;80.83
76345;DHT22;65160;50.504;3.666;2023-02-28T07:06:23;-0.68;80.69
76345;DHT22;65160;50.504;3.666;2023-02-28T07:08:50;-0.57;80.50
76345;DHT22;65160;50.504;3.666;2023-02-28T07:11:16;-0.50;80.36
76345;DHT22;65160;50.504;3.666;2023-02-28T07:13:42;-0.41;80.19
76345;DHT22;65160;50.504;3.666;2023-02-28T07:16:10;-0.35;80.14
76345;DHT22;65160;50.504;3.666;2023-02-28T07:18:36;-0.31;80.14
76345;DHT22;65160;50.504;3.666;2023-02-28T07:21:07;-0.23;80.21
76345;DHT22;65160;50.504;3.666;2023-02-28T07:23:33;-0.15;80.26
76345;DHT22;65160;50.504;3.666;2023-02-28T07:25:58;-0.10;80.19
76345;DHT22;65160;50.504;3.666;2023-02-28T07:28:24;0.00;79.96
76345;DHT22;65160;50.504;3.666;2023-02-28T07:30:50;0.03;80.02
76345;DHT22;65160;50.504;3.666;2023-02-28T07:33:15;0.04;79.96
76345;DHT22;65160;50.504;3.666;2023-02-28T07:35:41;0.08;80.00
76345;DHT22;65160;50.504;3.666;2023-02-28T07:38:07;0.11;79.62
76345;DHT22;65160;50.504;3.666;2023-02-28T07:40:33;0.21;79.24
76345;DHT22;65160;50.504;3.666;2023-02-28T07:43:00;0.35;78.76
76345;DHT22;65160;50.504;3.666;2023-02-28T07:45:26;0.49;78.75
76345;DHT22;65160;50.504;3.666;2023-02-28T07:47:54;0.61;78.35
76345;DHT22;65160;50.504;3.666;2023-02-28T07:50:20;0.66;77.63
76345;DHT22;65160;50.504;3.666;2023-02-28T07:52:46;0.68;77.32
76345;DHT22;65160;50.504;3.666;2023-02-28T07:55:11;0.79;77.42
76345;DHT22;65160;50.504;3.666;2023-02-28T07:57:39;0.84;77.32
76345;DHT22;65160;50.504;3.666;2023-02-28T08:00:07;0.90;76.99
76345;DHT22;65160;50.504;3.666;2023-02-28T08:02:34;1.01;76.94
76345;DHT22;65160;50.504;3.666;2023-02-28T08:05:00;1.07;76.62
76345;DHT22;65160;50.504;3.666;2023-02-28T08:07:26;1.14;76.35
76345;DHT22;65160;50.504;3.666;2023-02-28T08:09:52;1.20;75.68
76345;DHT22;65160;50.504;3.666;2023-02-28T08:12:17;1.31;76.03
76345;DHT22;65160;50.504;3.666;2023-02-28T08:14:43;1.56;75.03
76345;DHT22;65160;50.504;3.666;2023-02-28T08:17:10;1.55;74.61
76345;DHT22;65160;50.504;3.666;2023-02-28T08:19:35;1.45;75.06
76345;DHT22;65160;50.504;3.666;2023-02-28T08:22:01;1.45;75.22
76345;DHT22;65160;50.504;3.666;2023-02-28T08:24:26;1.48;75.04
76345;DHT22;65160;50.504;3.666;2023-02-28T08:26:52;1.52;74.88
76345;DHT22;65160;50.504;3.666;2023-02-28T08:29:17;1.60;74.49
76345;DHT22;65160;50.504;3.666;2023-02-28T08:31:43;1.73;74.57
76345;DHT22;65160;50.504;3.666;2023-02-28T08:34:10;1.79;74.52
76345;DHT22;65160;50.504;3.666;2023-02-28T08:36:36;1.80;74.22
76345;DHT22;65160;50.504;3.666;2023-02-28T08:39:02;1.82;74.20
76345;DHT22;65160;50.504;3.666;2023-02-28T08:41:28;2.07;73.85
76345;DHT22;65160;50.504;3.666;2023-02-28T08:43:53;2.37;72.32
76345;DHT22;65160;50.504;3.666;2023-02-28T08:46:19;2.66;72.11
76345;DHT22;65160;50.504;3.666;2023-02-28T08:48:45;3.10;71.01
76345;DHT22;65160;50.504;3.666;2023-02-28T08:51:13;3.49;68.28
76345;DHT22;65160;50.504;3.666;2023-02-28T08:53:41;3.62;66.40
76345;DHT22;65160;50.504;3.666;2023-02-28T08:56:09;3.68;65.76
76345;DHT22;65160;50.504;3.666;2023-02-28T08:58:35;3.68;65.42
76345;DHT22;65160;50.504;3.666;2023-02-28T09:01:07;3.86;63.77
76345;DHT22;65160;50.504;3.666;2023-02-28T09:03:33;4.10;62.29
76345;DHT22;65160;50.504;3.666;2023-02-28T09:06:00;4.44;61.95
76345;DHT22;65160;50.504;3.666;2023-02-28T09:08:28;4.69;59.52
76345;DHT22;65160;50.504;3.666;2023-02-28T09:10:54;4.84;59.23
76345;DHT22;65160;50.504;3.666;2023-02-28T09:13:22;5.03;56.97
76345;DHT22;65160;50.504;3.666;2023-02-28T09:15:47;5.28;54.67
76345;DHT22;65160;50.504;3.666;2023-02-28T09:18:13;5.42;55.45
76345;DHT22;65160;50.504;3.666;2023-02-28T09:20:41;5.26;54.01
76345;DHT22;65160;50.504;3.666;2023-02-28T09:23:08;5.04;54.12
76345;DHT22;65160;50.504;3.666;2023-02-28T09:25:34;5.54;53.35
76345;DHT22;65160;50.504;3.666;2023-02-28T09:28:00;5.66;54.69
76345;DHT22;65160;50.504;3.666;2023-02-28T09:30:25;5.79;53.52
76345;DHT22;65160;50.504;3.666;2023-02-28T09:32:51;5.73;53.28
76345;DHT22;65160;50.504;3.666;2023-02-28T09:35:20;5.27;55.06
76345;DHT22;65160;50.504;3.666;2023-02-28T09:37:47;5.30;53.90
76345;DHT22;65160;50.504;3.666;2023-02-28T09:40:13;5.35;53.26
76345;DHT22;65160;50.504;3.666;2023-02-28T09:42:40;5.38;53.14
76345;DHT22;65160;50.504;3.666;2023-02-28T09:45:22;5.06;52.18
76345;DHT22;65160;50.504;3.666;2023-02-28T09:47:51;5.00;52.30
76345;DHT22;65160;50.504;3.666;2023-02-28T09:50:36;5.41;51.11
76345;DHT22;65160;50.504;3.666;2023-02-28T09:53:15;5.51;51.29
76345;DHT22;65160;50.504;3.666;2023-02-28T09:55:52;5.34;50.05
76345;DHT22;65160;50.504;3.666;2023-02-28T09:58:31;5.41;52.21
76345;DHT22;65160;50.504;3.666;2023-02-28T10:01:08;5.48;51.01
76345;DHT22;65160;50.504;3.666;2023-02-28T10:03:39;5.38;50.34
76345;DHT22;65160;50.504;3.666;2023-02-28T10:06:18;5.48;50.75
76345;DHT22;65160;50.504;3.666;2023-02-28T10:09:01;5.89;49.98
76345;DHT22;65160;50.504;3.666;2023-02-28T10:11:29;6.02;48.53
76345;DHT22;65160;50.504;3.666;2023-02-28T10:16:39;6.31;48.30
76345;DHT22;65160;50.504;3.666;2023-02-28T10:21:57;6.44;48.43
76345;DHT22;65160;50.504;3.666;2023-02-28T10:24:33;6.71;48.37
76345;DHT22;65160;50.504;3.666;2023-02-28T10:27:12;6.97;46.89
76345;DHT22;65160;50.504;3.666;2023-02-28T10:29:40;6.75;46.10
76345;DHT22;65160;50.504;3.666;2023-02-28T10:32:06;6.95;43.83
76345;DHT22;65160;50.504;3.666;2023-02-28T10:34:33;6.62;44.90
76345;DHT22;65160;50.504;3.666;2023-02-28T10:36:58;6.75;43.12
76345;DHT22;65160;50.504;3.666;2023-02-28T10:39:44;6.86;42.57
76345;DHT22;65160;50.504;3.666;2023-02-28T10:44:44;7.25;40.23
76345;DHT22;65160;50.504;3.666;2023-02-28T10:47:17;7.17;39.00
76345;DHT22;65160;50.504;3.666;2023-02-28T10:49:49;6.93;40.31
76345;DHT22;65160;50.504;3.666;2023-02-28T10:52:33;6.89;39.64
76345;DHT22;65160;50.504;3.666;2023-02-28T10:55:23;6.87;40.67
76345;DHT22;65160;50.504;3.666;2023-02-28T10:57:51;7.34;41.11
76345;DHT22;65160;50.504;3.666;2023-02-28T11:00:23;7.00;40.56
76345;DHT22;65160;50.504;3.666;2023-02-28T11:02:50;7.38;40.00
76345;DHT22;65160;50.504;3.666;2023-02-28T11:05:29;7.59;39.11
76345;DHT22;65160;50.504;3.666;2023-02-28T11:08:06;7.85;39.70
76345;DHT22;65160;50.504;3.666;2023-02-28T11:10:36;7.44;40.19
76345;DHT22;65160;50.504;3.666;2023-02-28T11:13:03;7.28;39.73
76345;DHT22;65160;50.504;3.666;2023-02-28T11:15:33;7.31;39.92
76345;DHT22;65160;50.504;3.666;2023-02-28T11:20:38;7.85;40.33
76345;DHT22;65160;50.504;3.666;2023-02-28T11:23:05;7.72;39.90
76345;DHT22;65160;50.504;3.666;2023-02-28T11:25:36;7.75;39.77
76345;DHT22;65160;50.504;3.666;2023-02-28T11:28:05;7.79;39.10
76345;DHT22;65160;50.504;3.666;2023-02-28T11:30:38;7.78;39.05
76345;DHT22;65160;50.504;3.666;2023-02-28T11:36:08;7.75;40.36
76345;DHT22;65160;50.504;3.666;2023-02-28T11:38:35;7.90;39.06
76345;DHT22;65160;50.504;3.666;2023-02-28T11:44:20;8.75;36.10
76345;DHT22;65160;50.504;3.666;2023-02-28T11:46:50;8.45;37.40
76345;DHT22;65160;50.504;3.666;2023-02-28T11:49:37;8.31;38.57
76345;DHT22;65160;50.504;3.666;2023-02-28T11:55:24;7.73;38.26
76345;DHT22;65160;50.504;3.666;2023-02-28T12:05:43;7.56;38.79
76345;DHT22;65160;50.504;3.666;2023-02-28T12:19:19;7.44;38.20
76345;DHT22;65160;50.504;3.666;2023-02-28T12:22:49;7.73;37.57
76345;DHT22;65160;50.504;3.666;2023-02-28T12:27:14;8.01;36.46
76345;DHT22;65160;50.504;3.666;2023-02-28T12:32:43;8.21;38.29
76345;DHT22;65160;50.504;3.666;2023-02-28T12:37:54;8.00;37.11
76345;DHT22;65160;50.504;3.666;2023-02-28T12:40:23;7.91;36.81
76345;DHT22;65160;50.504;3.666;2023-02-28T12:42:56;7.85;36.35
76345;DHT22;65160;50.504;3.666;2023-02-28T12:45:36;8.37;34.68
76345;DHT22;65160;50.504;3.666;2023-02-28T12:48:08;8.75;35.50
76345;DHT22;65160;50.504;3.666;2023-02-28T12:50:37;8.89;34.89
76345;DHT22;65160;50.504;3.666;2023-02-28T12:53:08;8.21;35.54
76345;DHT22;65160;50.504;3.666;2023-02-28T12:55:53;8.82;34.22
76345;DHT22;65160;50.504;3.666;2023-02-28T13:06:38;8.07;36.90
76345;DHT22;65160;50.504;3.666;2023-02-28T13:09:11;7.73;36.00
76345;DHT22;65160;50.504;3.666;2023-02-28T13:11:44;7.91;36.60
76345;DHT22;65160;50.504;3.666;2023-02-28T13:14:19;7.54;37.36
76345;DHT22;65160;50.504;3.666;2023-02-28T13:17:17;8.04;36.46
76345;DHT22;65160;50.504;3.666;2023-02-28T13:25:01;7.01;38.84
76345;DHT22;65160;50.504;3.666;2023-02-28T13:27:45;7.23;38.75
76345;DHT22;65160;50.504;3.666;2023-02-28T13:33:22;7.25;38.06
76345;DHT22;65160;50.504;3.666;2023-02-28T13:35:48;7.44;38.54
76345;DHT22;65160;50.504;3.666;2023-02-28T13:38:36;7.79;36.89
76345;DHT22;65160;50.504;3.666;2023-02-28T13:44:20;7.68;36.58
76345;DHT22;65160;50.504;3.666;2023-02-28T13:49:33;7.50;36.82
76345;DHT22;65160;50.504;3.666;2023-02-28T13:57:29;6.97;38.57
76345;DHT22;65160;50.504;3.666;2023-02-28T14:03:05;7.48;38.60
76345;DHT22;65160;50.504;3.666;2023-02-28T14:05:34;7.89;37.77
76345;DHT22;65160;50.504;3.666;2023-02-28T14:08:06;8.34;36.36
76345;DHT22;65160;50.504;3.666;2023-02-28T14:10:41;7.83;37.03
76345;DHT22;65160;50.504;3.666;2023-02-28T14:16:00;8.69;35.68
76345;DHT22;65160;50.504;3.666;2023-02-28T14:18:32;7.91;38.47
76345;DHT22;65160;50.504;3.666;2023-02-28T14:32:13;11.78;31.40
76345;DHT22;65160;50.504;3.666;2023-02-28T14:35:13;11.19;31.66
76345;DHT22;65160;50.504;3.666;2023-02-28T14:37:42;10.69;31.90
76345;DHT22;65160;50.504;3.666;2023-02-28T14:40:23;11.28;30.98
76345;DHT22;65160;50.504;3.666;2023-02-28T14:43:04;11.41;31.11
76345;DHT22;65160;50.504;3.666;2023-02-28T14:45:32;10.44;32.50
76345;DHT22;65160;50.504;3.666;2023-02-28T14:48:00;10.57;32.68
76345;DHT22;65160;50.504;3.666;2023-02-28T14:50:30;10.33;32.80
76345;DHT22;65160;50.504;3.666;2023-02-28T14:52:57;9.87;33.90
76345;DHT22;65160;50.504;3.666;2023-02-28T14:55:28;10.12;32.93
76345;DHT22;65160;50.504;3.666;2023-02-28T14:57:57;10.18;33.58
76345;DHT22;65160;50.504;3.666;2023-02-28T15:00:29;10.25;32.40
76345;DHT22;65160;50.504;3.666;2023-02-28T15:02:57;9.75;33.90
76345;DHT22;65160;50.504;3.666;2023-02-28T15:05:32;9.75;33.64
76345;DHT22;65160;50.504;3.666;2023-02-28T15:08:14;9.81;33.25
76345;DHT22;65160;50.504;3.666;2023-02-28T15:11:00;9.65;33.85
76345;DHT22;65160;50.504;3.666;2023-02-28T15:13:36;9.79;35.12
76345;DHT22;65160;50.504;3.666;2023-02-28T15:16:15;10.50;33.52
76345;DHT22;65160;50.504;3.666;2023-02-28T15:18:51;10.86;31.77
76345;DHT22;65160;50.504;3.666;2023-02-28T15:21:22;11.31;32.97
76345;DHT22;65160;50.504;3.666;2023-02-28T15:24:02;11.22;32.99
76345;DHT22;65160;50.504;3.666;2023-02-28T15:26:32;11.05;32.32
76345;DHT22;65160;50.504;3.666;2023-02-28T15:29:22;10.93;31.84
76345;DHT22;65160;50.504;3.666;2023-02-28T15:32:02;10.31;33.10
76345;DHT22;65160;50.504;3.666;2023-02-28T15:34:41;10.34;34.24
76345;DHT22;65160;50.504;3.666;2023-02-28T15:37:40;10.75;32.06
76345;DHT22;65160;50.504;3.666;2023-02-28T15:42:42;11.24;31.14
76345;DHT22;65160;50.504;3.666;2023-02-28T15:45:33;11.51;30.97
76345;DHT22;65160;50.504;3.666;2023-02-28T15:48:03;10.40;31.64
76345;DHT22;65160;50.504;3.666;2023-02-28T15:50:28;9.30;33.79
76345;DHT22;65160;50.504;3.666;2023-02-28T15:52:54;9.51;33.18
76345;DHT22;65160;50.504;3.666;2023-02-28T15:57:52;9.42;34.16
76345;DHT22;65160;50.504;3.666;2023-02-28T16:00:19;9.34;33.33
76345;DHT22;65160;50.504;3.666;2023-02-28T16:02:45;8.65;33.44
76345;DHT22;65160;50.504;3.666;2023-02-28T16:07:39;9.65;33.10
76345;DHT22;65160;50.504;3.666;2023-02-28T16:10:07;8.99;32.93
76345;DHT22;65160;50.504;3.666;2023-02-28T16:12:34;8.55;35.18
76345;DHT22;65160;50.504;3.666;2023-02-28T16:15:08;7.50;36.41
76345;DHT22;65160;50.504;3.666;2023-02-28T16:17:38;6.87;38.25
76345;DHT22;65160;50.504;3.666;2023-02-28T16:20:26;6.56;40.31
76345;DHT22;65160;50.504;3.666;2023-02-28T16:22:53;6.48;39.42
76345;DHT22;65160;50.504;3.666;2023-02-28T16:25:22;6.40;38.77
76345;DHT22;65160;50.504;3.666;2023-02-28T16:27:50;6.17;39.07
76345;DHT22;65160;50.504;3.666;2023-02-28T16:30:24;5.82;40.33
76345;DHT22;65160;50.504;3.666;2023-02-28T16:32:50;5.75;41.42
76345;DHT22;65160;50.504;3.666;2023-02-28T16:35:16;5.79;41.05
76345;DHT22;65160;50.504;3.666;2023-02-28T16:37:43;5.82;41.48
76345;DHT22;65160;50.504;3.666;2023-02-28T16:40:17;5.66;41.39
76345;DHT22;65160;50.504;3.666;2023-02-28T16:42:44;5.60;42.38
76345;DHT22;65160;50.504;3.666;2023-02-28T16:45:30;5.62;42.71
76345;DHT22;65160;50.504;3.666;2023-02-28T16:47:56;5.55;41.39
76345;DHT22;65160;50.504;3.666;2023-02-28T16:50:28;5.28;41.76
76345;DHT22;65160;50.504;3.666;2023-02-28T16:52:54;5.16;43.01
76345;DHT22;65160;50.504;3.666;2023-02-28T16:55:21;5.17;42.84
76345;DHT22;65160;50.504;3.666;2023-02-28T16:57:51;5.06;43.00
76345;DHT22;65160;50.504;3.666;2023-02-28T17:00:17;4.96;43.68
76345;DHT22;65160;50.504;3.666;2023-02-28T17:02:43;4.87;44.18
76345;DHT22;65160;50.504;3.666;2023-02-28T17:05:11;4.87;44.15
76345;DHT22;65160;50.504;3.666;2023-02-28T17:07:37;4.79;44.85
76345;DHT22;65160;50.504;3.666;2023-02-28T17:10:18;4.71;44.79
76345;DHT22;65160;50.504;3.666;2023-02-28T17:12:44;4.79;47.52
76345;DHT22;65160;50.504;3.666;2023-02-28T17:15:12;4.77;46.13
76345;DHT22;65160;50.504;3.666;2023-02-28T17:17:38;4.76;45.42
76345;DHT22;65160;50.504;3.666;2023-02-28T17:20:04;4.72;46.28
76345;DHT22;65160;50.504;3.666;2023-02-28T17:22:31;4.59;46.08
76345;DHT22;65160;50.504;3.666;2023-02-28T17:24:56;4.55;47.18
76345;DHT22;65160;50.504;3.666;2023-02-28T17:27:22;4.48;46.45
76345;DHT22;65160;50.504;3.666;2023-02-28T17:29:48;4.34;46.33
76345;DHT22;65160;50.504;3.666;2023-02-28T17:32:14;4.20;46.25
76345;DHT22;65160;50.504;3.666;2023-02-28T17:34:39;4.17;48.13
76345;DHT22;65160;50.504;3.666;2023-02-28T17:37:05;4.11;47.53
76345;DHT22;65160;50.504;3.666;2023-02-28T17:39:30;4.13;47.09
76345;DHT22;65160;50.504;3.666;2023-02-28T17:41:56;4.06;47.65
76345;DHT22;65160;50.504;3.666;2023-02-28T17:44:23;4.00;48.76
76345;DHT22;65160;50.504;3.666;2023-02-28T17:46:49;3.98;48.10
76345;DHT22;65160;50.504;3.666;2023-02-28T17:49:19;3.93;48.93
76345;DHT22;65160;50.504;3.666;2023-02-28T17:51:45;3.83;49.65
76345;DHT22;65160;50.504;3.666;2023-02-28T17:54:11;3.85;50.43
76345;DHT22;65160;50.504;3.666;2023-02-28T17:56:36;3.80;48.48
76345;DHT22;65160;50.504;3.666;2023-02-28T17:59:02;3.68;49.20
76345;DHT22;65160;50.504;3.666;2023-02-28T18:01:28;3.59;49.47
76345;DHT22;65160;50.504;3.666;2023-02-28T18:03:54;3.54;49.49
76345;DHT22;65160;50.504;3.666;2023-02-28T18:06:22;3.46;49.48
76345;DHT22;65160;50.504;3.666;2023-02-28T18:08:49;3.43;50.19
76345;DHT22;65160;50.504;3.666;2023-02-28T18:11:17;3.45;50.17
76345;DHT22;65160;50.504;3.666;2023-02-28T18:13:53;3.45;51.30
76345;DHT22;65160;50.504;3.666;2023-02-28T18:16:21;3.43;51.22
76345;DHT22;65160;50.504;3.666;2023-02-28T18:18:47;3.41;52.48